sensor_id;sensor_type;location;lat;lon;timestamp;P1;durP1;ratioP1;P2;durP2;ratioP2
42514;SDS011;28144;49.920;18.730;2024-01-30T00:02:12;52.00;;;19.63;;
42514;SDS011;28144;49.920;18.730;2024-01-30T00:04:38;48.00;;;18.90;;
42514;SDS011;28144;49.920;18.730;2024-01-30T00:07:04;44.93;;;17.87;;
42514;SDS011;28144;49.920;18.730;2024-01-30T00:09:30;44.37;;;17.50;;
42514;SDS011;28144;49.920;18.730;2024-01-30T00:11:56;43.53;;;16.75;;
42514;SDS011;28144;49.920;18.730;2024-01-30T00:14:22;42.97;;;17.77;;
42514;SDS011;28144;49.920;18.730;2024-01-30T00:16:48;37.15;;;16.45;;
42514;SDS011;28144;49.920;18.730;2024-01-30T00:19:14;42.53;;;16.10;;
42514;SDS011;28144;49.920;18.730;2024-01-30T00:21:39;35.50;;;15.33;;
42514;SDS011;28144;49.920;18.730;2024-01-30T00:24:06;39.03;;;16.73;;
42514;SDS011;28144;49.920;18.730;2024-01-30T00:26:45;38.80;;;15.70;;
42514;SDS011;28144;49.920;18.730;2024-01-30T00:29:11;36.27;;;14.47;;
42514;SDS011;28144;49.920;18.730;2024-01-30T00:31:37;35.30;;;14.57;;
42514;SDS011;28144;49.920;18.730;2024-01-30T00:34:03;29.17;;;13.53;;
42514;SDS011;28144;49.920;18.730;2024-01-30T00:36:29;30.40;;;13.10;;
42514;SDS011;28144;49.920;18.730;2024-01-30T00:38:55;28.95;;;13.30;;
42514;SDS011;28144;49.920;18.730;2024-01-30T00:41:21;32.67;;;13.40;;
42514;SDS011;28144;49.920;18.730;2024-01-30T00:43:47;29.33;;;13.48;;
42514;SDS011;28144;49.920;18.730;2024-01-30T00:46:13;32.17;;;12.90;;
42514;SDS011;28144;49.920;18.730;2024-01-30T00:48:39;35.17;;;13.10;;
42514;SDS011;28144;49.920;18.730;2024-01-30T00:51:04;29.63;;;13.50;;
42514;SDS011;28144;49.920;18.730;2024-01-30T00:53:30;27.20;;;12.77;;
42514;SDS011;28144;49.920;18.730;2024-01-30T00:55:56;29.53;;;12.97;;
42514;SDS011;28144;49.920;18.730;2024-01-30T00:58:22;28.40;;;12.47;;
42514;SDS011;28144;49.920;18.730;2024-01-30T01:00:47;30.00;;;11.63;;
42514;SDS011;28144;49.920;18.730;2024-01-30T01:03:13;30.87;;;11.70;;
42514;SDS011;28144;49.920;18.730;2024-01-30T01:05:39;27.07;;;12.17;;
42514;SDS011;28144;49.920;18.730;2024-01-30T01:08:05;26.47;;;11.93;;
42514;SDS011;28144;49.920;18.730;2024-01-30T01:10:31;26.60;;;11.38;;
42514;SDS011;28144;49.920;18.730;2024-01-30T01:12:56;22.87;;;10.93;;
42514;SDS011;28144;49.920;18.730;2024-01-30T01:15:22;19.97;;;9.80;;
42514;SDS011;28144;49.920;18.730;2024-01-30T01:17:48;19.93;;;9.23;;
42514;SDS011;28144;49.920;18.730;2024-01-30T01:20:14;23.57;;;9.60;;
42514;SDS011;28144;49.920;18.730;2024-01-30T01:22:39;19.50;;;9.63;;
42514;SDS011;28144;49.920;18.730;2024-01-30T01:25:06;21.80;;;8.97;;
42514;SDS011;28144;49.920;18.730;2024-01-30T01:27:35;24.30;;;9.57;;
42514;SDS011;28144;49.920;18.730;2024-01-30T01:30:07;23.50;;;9.87;;
42514;SDS011;28144;49.920;18.730;2024-01-30T01:32:34;18.10;;;8.23;;
42514;SDS011;28144;49.920;18.730;2024-01-30T01:35:00;17.47;;;8.37;;
42514;SDS011;28144;49.920;18.730;2024-01-30T01:37:26;20.30;;;8.90;;
42514;SDS011;28144;49.920;18.730;2024-01-30T01:39:53;16.38;;;8.95;;
42514;SDS011;28144;49.920;18.730;2024-01-30T01:42:18;21.03;;;8.97;;
42514;SDS011;28144;49.920;18.730;2024-01-30T01:44:44;19.70;;;8.53;;
42514;SDS011;28144;49.920;18.730;2024-01-30T01:47:10;20.37;;;8.70;;
42514;SDS011;28144;49.920;18.730;2024-01-30T01:49:36;19.97;;;9.13;;
42514;SDS011;28144;49.920;18.730;2024-01-30T01:52:02;20.08;;;8.85;;
42514;SDS011;28144;49.920;18.730;2024-01-30T01:54:28;20.48;;;8.98;;
42514;SDS011;28144;49.920;18.730;2024-01-30T01:56:54;19.05;;;9.32;;
42514;SDS011;28144;49.920;18.730;2024-01-30T01:59:20;24.70;;;11.43;;
42514;SDS011;28144;49.920;18.730;2024-01-30T02:01:47;19.80;;;7.93;;
42514;SDS011;28144;49.920;18.730;2024-01-30T02:04:15;19.90;;;9.13;;
42514;SDS011;28144;49.920;18.730;2024-01-30T02:06:41;18.55;;;9.45;;
42514;SDS011;28144;49.920;18.730;2024-01-30T02:09:09;18.50;;;8.90;;
42514;SDS011;28144;49.920;18.730;2024-01-30T02:11:34;14.47;;;8.43;;
42514;SDS011;28144;49.920;18.730;2024-01-30T02:14:03;19.87;;;8.70;;
42514;SDS011;28144;49.920;18.730;2024-01-30T02:16:29;21.33;;;9.87;;
42514;SDS011;28144;49.920;18.730;2024-01-30T02:18:56;18.95;;;7.38;;
42514;SDS011;28144;49.920;18.730;2024-01-30T02:21:21;18.40;;;9.13;;
42514;SDS011;28144;49.920;18.730;2024-01-30T02:23:47;17.67;;;8.60;;
42514;SDS011;28144;49.920;18.730;2024-01-30T02:26:14;24.83;;;8.60;;
42514;SDS011;28144;49.920;18.730;2024-01-30T02:28:40;22.20;;;9.32;;
42514;SDS011;28144;49.920;18.730;2024-01-30T02:31:06;18.73;;;8.47;;
42514;SDS011;28144;49.920;18.730;2024-01-30T02:33:31;15.80;;;7.77;;
42514;SDS011;28144;49.920;18.730;2024-01-30T02:35:57;15.57;;;7.70;;
42514;SDS011;28144;49.920;18.730;2024-01-30T02:38:24;17.03;;;8.00;;
42514;SDS011;28144;49.920;18.730;2024-01-30T02:40:50;16.17;;;7.60;;
42514;SDS011;28144;49.920;18.730;2024-01-30T02:43:16;16.03;;;7.87;;
42514;SDS011;28144;49.920;18.730;2024-01-30T02:45:42;14.80;;;7.53;;
42514;SDS011;28144;49.920;18.730;2024-01-30T02:48:08;20.40;;;8.90;;
42514;SDS011;28144;49.920;18.730;2024-01-30T02:50:33;22.77;;;8.77;;
42514;SDS011;28144;49.920;18.730;2024-01-30T02:52:59;19.80;;;8.57;;
42514;SDS011;28144;49.920;18.730;2024-01-30T02:55:25;14.50;;;7.10;;
42514;SDS011;28144;49.920;18.730;2024-01-30T02:57:51;15.87;;;7.23;;
42514;SDS011;28144;49.920;18.730;2024-01-30T03:00:17;14.90;;;7.63;;
42514;SDS011;28144;49.920;18.730;2024-01-30T03:02:43;19.60;;;8.43;;
42514;SDS011;28144;49.920;18.730;2024-01-30T03:05:08;22.13;;;9.00;;
42514;SDS011;28144;49.920;18.730;2024-01-30T03:07:34;21.53;;;9.00;;
42514;SDS011;28144;49.920;18.730;2024-01-30T03:10:00;15.83;;;7.30;;
42514;SDS011;28144;49.920;18.730;2024-01-30T03:12:26;19.55;;;7.15;;
42514;SDS011;28144;49.920;18.730;2024-01-30T03:14:51;17.60;;;8.30;;
42514;SDS011;28144;49.920;18.730;2024-01-30T03:17:18;14.18;;;7.40;;
42514;SDS011;28144;49.920;18.730;2024-01-30T03:19:43;13.80;;;7.97;;
42514;SDS011;28144;49.920;18.730;2024-01-30T03:22:09;15.97;;;7.40;;
42514;SDS011;28144;49.920;18.730;2024-01-30T03:24:35;19.90;;;8.00;;
42514;SDS011;28144;49.920;18.730;2024-01-30T03:27:01;18.17;;;8.27;;
42514;SDS011;28144;49.920;18.730;2024-01-30T03:29:26;19.70;;;9.00;;
42514;SDS011;28144;49.920;18.730;2024-01-30T03:31:52;16.83;;;7.97;;
42514;SDS011;28144;49.920;18.730;2024-01-30T03:34:18;16.17;;;8.07;;
42514;SDS011;28144;49.920;18.730;2024-01-30T03:36:44;20.97;;;8.60;;
42514;SDS011;28144;49.920;18.730;2024-01-30T03:39:09;15.60;;;8.10;;
42514;SDS011;28144;49.920;18.730;2024-01-30T03:41:35;16.03;;;7.73;;
42514;SDS011;28144;49.920;18.730;2024-01-30T03:44:01;21.83;;;8.80;;
42514;SDS011;28144;49.920;18.730;2024-01-30T03:46:27;20.73;;;9.67;;
42514;SDS011;28144;49.920;18.730;2024-01-30T03:48:53;18.63;;;8.37;;
42514;SDS011;28144;49.920;18.730;2024-01-30T03:51:19;19.00;;;8.63;;
42514;SDS011;28144;49.920;18.730;2024-01-30T03:53:45;18.53;;;8.17;;
42514;SDS011;28144;49.920;18.730;2024-01-30T03:56:13;17.83;;;8.50;;
42514;SDS011;28144;49.920;18.730;2024-01-30T03:58:39;19.77;;;8.80;;
42514;SDS011;28144;49.920;18.730;2024-01-30T04:01:05;23.17;;;8.85;;
42514;SDS011;28144;49.920;18.730;2024-01-30T04:03:31;20.20;;;8.33;;
42514;SDS011;28144;49.920;18.730;2024-01-30T04:05:56;18.03;;;8.73;;
42514;SDS011;28144;49.920;18.730;2024-01-30T04:08:22;20.43;;;8.67;;
42514;SDS011;28144;49.920;18.730;2024-01-30T04:10:48;20.47;;;9.37;;
42514;SDS011;28144;49.920;18.730;2024-01-30T04:13:14;28.95;;;11.43;;
42514;SDS011;28144;49.920;18.730;2024-01-30T04:15:40;26.67;;;10.53;;
42514;SDS011;28144;49.920;18.730;2024-01-30T04:18:05;16.87;;;8.80;;
42514;SDS011;28144;49.920;18.730;2024-01-30T04:20:32;17.23;;;8.40;;
42514;SDS011;28144;49.920;18.730;2024-01-30T04:22:57;19.50;;;9.27;;
42514;SDS011;28144;49.920;18.730;2024-01-30T04:25:23;16.07;;;8.77;;
42514;SDS011;28144;49.920;18.730;2024-01-30T04:27:49;18.43;;;9.63;;
42514;SDS011;28144;49.920;18.730;2024-01-30T04:30:15;20.87;;;9.13;;
42514;SDS011;28144;49.920;18.730;2024-01-30T04:32:40;18.80;;;8.33;;
42514;SDS011;28144;49.920;18.730;2024-01-30T04:35:07;16.80;;;8.65;;
42514;SDS011;28144;49.920;18.730;2024-01-30T04:37:32;23.90;;;7.63;;
42514;SDS011;28144;49.920;18.730;2024-01-30T04:39:58;17.50;;;8.30;;
42514;SDS011;28144;49.920;18.730;2024-01-30T04:42:24;16.90;;;8.60;;
42514;SDS011;28144;49.920;18.730;2024-01-30T04:44:50;18.23;;;8.60;;
42514;SDS011;28144;49.920;18.730;2024-01-30T04:47:15;18.87;;;7.90;;
42514;SDS011;28144;49.920;18.730;2024-01-30T04:49:42;19.23;;;8.63;;
42514;SDS011;28144;49.920;18.730;2024-01-30T04:52:08;19.17;;;8.70;;
42514;SDS011;28144;49.920;18.730;2024-01-30T04:54:34;17.42;;;7.88;;
42514;SDS011;28144;49.920;18.730;2024-01-30T04:57:00;15.88;;;7.82;;
42514;SDS011;28144;49.920;18.730;2024-01-30T04:59:27;21.45;;;8.38;;
42514;SDS011;28144;49.920;18.730;2024-01-30T05:01:52;21.90;;;8.37;;
42514;SDS011;28144;49.920;18.730;2024-01-30T05:04:18;16.85;;;8.88;;
42514;SDS011;28144;49.920;18.730;2024-01-30T05:06:44;16.47;;;7.80;;
42514;SDS011;28144;49.920;18.730;2024-01-30T05:09:10;18.00;;;8.85;;
42514;SDS011;28144;49.920;18.730;2024-01-30T05:11:37;18.77;;;8.60;;
42514;SDS011;28144;49.920;18.730;2024-01-30T05:14:06;17.20;;;8.23;;
42514;SDS011;28144;49.920;18.730;2024-01-30T05:16:32;20.57;;;9.40;;
42514;SDS011;28144;49.920;18.730;2024-01-30T05:18:58;18.83;;;8.63;;
42514;SDS011;28144;49.920;18.730;2024-01-30T05:21:23;24.77;;;9.23;;
42514;SDS011;28144;49.920;18.730;2024-01-30T05:23:49;19.67;;;9.33;;
42514;SDS011;28144;49.920;18.730;2024-01-30T05:26:15;20.33;;;9.47;;
42514;SDS011;28144;49.920;18.730;2024-01-30T05:28:41;23.70;;;9.87;;
42514;SDS011;28144;49.920;18.730;2024-01-30T05:31:06;19.80;;;9.23;;
42514;SDS011;28144;49.920;18.730;2024-01-30T05:33:33;21.60;;;9.73;;
42514;SDS011;28144;49.920;18.730;2024-01-30T05:35:59;24.43;;;10.17;;
42514;SDS011;28144;49.920;18.730;2024-01-30T05:38:25;22.80;;;9.97;;
42514;SDS011;28144;49.920;18.730;2024-01-30T05:40:50;23.60;;;9.90;;
42514;SDS011;28144;49.920;18.730;2024-01-30T05:43:17;19.97;;;8.97;;
42514;SDS011;28144;49.920;18.730;2024-01-30T05:45:42;21.67;;;9.50;;
42514;SDS011;28144;49.920;18.730;2024-01-30T05:48:08;20.37;;;9.23;;
42514;SDS011;28144;49.920;18.730;2024-01-30T05:50:34;17.80;;;9.40;;
42514;SDS011;28144;49.920;18.730;2024-01-30T05:53:00;22.53;;;9.80;;
42514;SDS011;28144;49.920;18.730;2024-01-30T05:55:25;25.03;;;10.33;;
42514;SDS011;28144;49.920;18.730;2024-01-30T05:57:51;23.07;;;10.83;;
42514;SDS011;28144;49.920;18.730;2024-01-30T06:00:18;22.52;;;11.00;;
42514;SDS011;28144;49.920;18.730;2024-01-30T06:02:44;22.17;;;9.98;;
42514;SDS011;28144;49.920;18.730;2024-01-30T06:05:09;23.17;;;10.03;;
42514;SDS011;28144;49.920;18.730;2024-01-30T06:07:35;22.37;;;9.77;;
42514;SDS011;28144;49.920;18.730;2024-01-30T06:10:01;23.93;;;9.77;;
42514;SDS011;28144;49.920;18.730;2024-01-30T06:12:27;18.40;;;10.02;;
42514;SDS011;28144;49.920;18.730;2024-01-30T06:14:53;26.17;;;10.45;;
42514;SDS011;28144;49.920;18.730;2024-01-30T06:17:22;23.70;;;10.77;;
42514;SDS011;28144;49.920;18.730;2024-01-30T06:19:48;23.27;;;10.07;;
42514;SDS011;28144;49.920;18.730;2024-01-30T06:22:15;18.27;;;9.20;;
42514;SDS011;28144;49.920;18.730;2024-01-30T06:24:41;18.65;;;8.50;;
42514;SDS011;28144;49.920;18.730;2024-01-30T06:27:07;21.43;;;9.70;;
42514;SDS011;28144;49.920;18.730;2024-01-30T06:29:32;20.00;;;9.53;;
42514;SDS011;28144;49.920;18.730;2024-01-30T06:31:59;18.40;;;8.63;;
42514;SDS011;28144;49.920;18.730;2024-01-30T06:34:24;18.52;;;9.20;;
42514;SDS011;28144;49.920;18.730;2024-01-30T06:39:17;21.10;;;9.33;;
42514;SDS011;28144;49.920;18.730;2024-01-30T06:41:44;20.60;;;9.25;;
42514;SDS011;28144;49.920;18.730;2024-01-30T06:44:11;21.43;;;9.60;;
42514;SDS011;28144;49.920;18.730;2024-01-30T06:46:37;21.53;;;9.27;;
42514;SDS011;28144;49.920;18.730;2024-01-30T06:49:03;21.52;;;9.40;;
42514;SDS011;28144;49.920;18.730;2024-01-30T06:51:29;24.77;;;10.38;;
42514;SDS011;28144;49.920;18.730;2024-01-30T06:53:55;19.63;;;9.47;;
42514;SDS011;28144;49.920;18.730;2024-01-30T06:56:21;25.53;;;8.33;;
42514;SDS011;28144;49.920;18.730;2024-01-30T06:58:47;23.17;;;8.93;;
42514;SDS011;28144;49.920;18.730;2024-01-30T07:01:14;19.25;;;9.15;;
42514;SDS011;28144;49.920;18.730;2024-01-30T07:03:39;23.25;;;10.40;;
42514;SDS011;28144;49.920;18.730;2024-01-30T07:06:05;23.37;;;10.37;;
42514;SDS011;28144;49.920;18.730;2024-01-30T07:08:31;24.57;;;10.80;;
42514;SDS011;28144;49.920;18.730;2024-01-30T07:10:57;23.23;;;10.23;;
42514;SDS011;28144;49.920;18.730;2024-01-30T07:13:23;22.53;;;12.07;;
42514;SDS011;28144;49.920;18.730;2024-01-30T07:15:48;24.60;;;11.57;;
42514;SDS011;28144;49.920;18.730;2024-01-30T07:18:14;22.73;;;11.33;;
42514;SDS011;28144;49.920;18.730;2024-01-30T07:20:40;24.57;;;12.00;;
42514;SDS011;28144;49.920;18.730;2024-01-30T07:23:11;23.53;;;12.07;;
42514;SDS011;28144;49.920;18.730;2024-01-30T07:25:40;23.97;;;11.67;;
42514;SDS011;28144;49.920;18.730;2024-01-30T07:28:07;25.87;;;11.57;;
42514;SDS011;28144;49.920;18.730;2024-01-30T07:30:34;27.17;;;12.20;;
42514;SDS011;28144;49.920;18.730;2024-01-30T07:33:00;27.73;;;11.80;;
42514;SDS011;28144;49.920;18.730;2024-01-30T07:35:26;24.77;;;11.77;;
42514;SDS011;28144;49.920;18.730;2024-01-30T07:37:52;22.50;;;10.30;;
42514;SDS011;28144;49.920;18.730;2024-01-30T07:40:18;27.23;;;10.95;;
42514;SDS011;28144;49.920;18.730;2024-01-30T07:42:43;24.90;;;11.77;;
42514;SDS011;28144;49.920;18.730;2024-01-30T07:45:09;23.43;;;10.30;;
42514;SDS011;28144;49.920;18.730;2024-01-30T07:47:35;23.57;;;10.17;;
42514;SDS011;28144;49.920;18.730;2024-01-30T07:50:01;20.47;;;10.47;;
42514;SDS011;28144;49.920;18.730;2024-01-30T07:52:30;20.37;;;10.33;;
42514;SDS011;28144;49.920;18.730;2024-01-30T07:54:56;23.70;;;10.55;;
42514;SDS011;28144;49.920;18.730;2024-01-30T07:57:21;25.67;;;11.87;;
42514;SDS011;28144;49.920;18.730;2024-01-30T07:59:47;25.43;;;11.80;;
42514;SDS011;28144;49.920;18.730;2024-01-30T08:02:13;21.00;;;10.73;;
42514;SDS011;28144;49.920;18.730;2024-01-30T08:04:39;25.00;;;11.60;;
42514;SDS011;28144;49.920;18.730;2024-01-30T08:07:05;28.70;;;11.77;;
42514;SDS011;28144;49.920;18.730;2024-01-30T08:09:35;22.70;;;10.47;;
42514;SDS011;28144;49.920;18.730;2024-01-30T08:12:01;23.37;;;11.73;;
42514;SDS011;28144;49.920;18.730;2024-01-30T08:14:27;27.08;;;11.57;;
42514;SDS011;28144;49.920;18.730;2024-01-30T08:16:53;22.33;;;11.33;;
42514;SDS011;28144;49.920;18.730;2024-01-30T08:19:19;26.80;;;11.60;;
42514;SDS011;28144;49.920;18.730;2024-01-30T08:21:44;23.30;;;10.27;;
42514;SDS011;28144;49.920;18.730;2024-01-30T08:24:10;21.93;;;11.00;;
42514;SDS011;28144;49.920;18.730;2024-01-30T08:26:36;21.40;;;10.13;;
42514;SDS011;28144;49.920;18.730;2024-01-30T08:29:02;22.58;;;10.50;;
42514;SDS011;28144;49.920;18.730;2024-01-30T08:31:28;21.90;;;10.27;;
42514;SDS011;28144;49.920;18.730;2024-01-30T08:33:54;26.97;;;11.43;;
42514;SDS011;28144;49.920;18.730;2024-01-30T08:36:20;21.60;;;10.90;;
42514;SDS011;28144;49.920;18.730;2024-01-30T08:38:45;19.97;;;10.60;;
42514;SDS011;28144;49.920;18.730;2024-01-30T08:41:11;18.93;;;9.40;;
42514;SDS011;28144;49.920;18.730;2024-01-30T08:43:37;24.77;;;11.37;;
42514;SDS011;28144;49.920;18.730;2024-01-30T08:46:03;22.17;;;10.53;;
42514;SDS011;28144;49.920;18.730;2024-01-30T08:48:29;19.33;;;10.63;;
42514;SDS011;28144;49.920;18.730;2024-01-30T08:50:54;21.70;;;10.70;;
42514;SDS011;28144;49.920;18.730;2024-01-30T08:53:20;23.27;;;10.90;;
42514;SDS011;28144;49.920;18.730;2024-01-30T08:55:46;25.27;;;10.73;;
42514;SDS011;28144;49.920;18.730;2024-01-30T08:58:12;21.30;;;10.23;;
42514;SDS011;28144;49.920;18.730;2024-01-30T09:00:38;23.23;;;10.77;;
42514;SDS011;28144;49.920;18.730;2024-01-30T09:03:04;24.95;;;11.02;;
42514;SDS011;28144;49.920;18.730;2024-01-30T09:05:30;23.45;;;10.45;;
42514;SDS011;28144;49.920;18.730;2024-01-30T09:07:56;21.70;;;10.73;;
42514;SDS011;28144;49.920;18.730;2024-01-30T09:10:21;25.53;;;11.40;;
42514;SDS011;28144;49.920;18.730;2024-01-30T09:12:47;24.67;;;10.83;;
42514;SDS011;28144;49.920;18.730;2024-01-30T09:15:14;23.35;;;11.18;;
42514;SDS011;28144;49.920;18.730;2024-01-30T09:17:40;28.30;;;10.88;;
42514;SDS011;28144;49.920;18.730;2024-01-30T09:20:06;25.17;;;10.43;;
42514;SDS011;28144;49.920;18.730;2024-01-30T09:22:32;26.35;;;11.32;;
42514;SDS011;28144;49.920;18.730;2024-01-30T09:24:58;28.33;;;11.20;;
42514;SDS011;28144;49.920;18.730;2024-01-30T09:27:24;27.67;;;11.00;;
42514;SDS011;28144;49.920;18.730;2024-01-30T09:29:50;24.37;;;12.47;;
42514;SDS011;28144;49.920;18.730;2024-01-30T09:32:16;27.43;;;12.80;;
42514;SDS011;28144;49.920;18.730;2024-01-30T09:37:08;23.98;;;11.57;;
42514;SDS011;28144;49.920;18.730;2024-01-30T09:39:34;22.20;;;11.10;;
42514;SDS011;28144;49.920;18.730;2024-01-30T09:44:54;23.43;;;11.07;;
42514;SDS011;28144;49.920;18.730;2024-01-30T09:47:20;25.92;;;12.32;;
42514;SDS011;28144;49.920;18.730;2024-01-30T09:49:45;23.03;;;9.90;;
42514;SDS011;28144;49.920;18.730;2024-01-30T09:52:12;21.52;;;10.88;;
42514;SDS011;28144;49.920;18.730;2024-01-30T09:54:38;19.80;;;10.97;;
42514;SDS011;28144;49.920;18.730;2024-01-30T09:57:04;19.58;;;9.70;;
42514;SDS011;28144;49.920;18.730;2024-01-30T09:59:31;22.52;;;10.00;;
42514;SDS011;28144;49.920;18.730;2024-01-30T10:01:57;20.50;;;10.03;;
42514;SDS011;28144;49.920;18.730;2024-01-30T10:04:23;18.23;;;8.67;;
42514;SDS011;28144;49.920;18.730;2024-01-30T10:06:49;20.33;;;10.43;;
42514;SDS011;28144;49.920;18.730;2024-01-30T10:09:14;21.87;;;9.87;;
42514;SDS011;28144;49.920;18.730;2024-01-30T10:11:40;20.47;;;9.77;;
42514;SDS011;28144;49.920;18.730;2024-01-30T10:14:06;19.47;;;9.77;;
42514;SDS011;28144;49.920;18.730;2024-01-30T10:16:32;20.07;;;10.00;;
42514;SDS011;28144;49.920;18.730;2024-01-30T10:18:57;17.63;;;9.03;;
42514;SDS011;28144;49.920;18.730;2024-01-30T10:21:23;16.53;;;9.20;;
42514;SDS011;28144;49.920;18.730;2024-01-30T10:23:50;20.15;;;9.75;;
42514;SDS011;28144;49.920;18.730;2024-01-30T10:26:16;19.90;;;10.43;;
42514;SDS011;28144;49.920;18.730;2024-01-30T10:28:42;20.67;;;10.23;;
42514;SDS011;28144;49.920;18.730;2024-01-30T10:31:08;19.87;;;9.10;;
42514;SDS011;28144;49.920;18.730;2024-01-30T10:33:34;25.17;;;10.13;;
42514;SDS011;28144;49.920;18.730;2024-01-30T10:36:04;17.47;;;10.20;;
42514;SDS011;28144;49.920;18.730;2024-01-30T10:38:30;18.47;;;9.73;;
42514;SDS011;28144;49.920;18.730;2024-01-30T10:40:58;16.83;;;9.20;;
42514;SDS011;28144;49.920;18.730;2024-01-30T10:43:29;18.90;;;9.18;;
42514;SDS011;28144;49.920;18.730;2024-01-30T10:45:57;19.47;;;9.40;;
42514;SDS011;28144;49.920;18.730;2024-01-30T10:48:30;20.13;;;9.63;;
42514;SDS011;28144;49.920;18.730;2024-01-30T10:50:58;17.00;;;8.67;;
42514;SDS011;28144;49.920;18.730;2024-01-30T10:55:51;17.48;;;9.25;;
42514;SDS011;28144;49.920;18.730;2024-01-30T10:58:17;22.30;;;9.25;;
42514;SDS011;28144;49.920;18.730;2024-01-30T11:00:43;15.77;;;8.80;;
42514;SDS011;28144;49.920;18.730;2024-01-30T11:03:09;18.60;;;9.27;;
42514;SDS011;28144;49.920;18.730;2024-01-30T11:05:35;16.08;;;8.75;;
42514;SDS011;28144;49.920;18.730;2024-01-30T11:08:14;16.45;;;8.90;;
42514;SDS011;28144;49.920;18.730;2024-01-30T11:10:46;15.80;;;8.57;;
42514;SDS011;28144;49.920;18.730;2024-01-30T11:13:14;19.87;;;8.73;;
42514;SDS011;28144;49.920;18.730;2024-01-30T11:15:41;15.93;;;8.63;;
42514;SDS011;28144;49.920;18.730;2024-01-30T11:18:06;18.70;;;8.97;;
42514;SDS011;28144;49.920;18.730;2024-01-30T11:20:32;20.47;;;10.27;;
42514;SDS011;28144;49.920;18.730;2024-01-30T11:23:01;21.07;;;9.60;;
42514;SDS011;28144;49.920;18.730;2024-01-30T11:25:32;21.20;;;9.23;;
42514;SDS011;28144;49.920;18.730;2024-01-30T11:27:58;18.60;;;9.67;;
42514;SDS011;28144;49.920;18.730;2024-01-30T11:30:25;17.37;;;9.40;;
42514;SDS011;28144;49.920;18.730;2024-01-30T11:33:02;15.90;;;8.40;;
42514;SDS011;28144;49.920;18.730;2024-01-30T11:38:00;16.33;;;8.50;;
42514;SDS011;28144;49.920;18.730;2024-01-30T11:40:28;14.65;;;7.88;;
42514;SDS011;28144;49.920;18.730;2024-01-30T11:42:55;18.00;;;8.50;;
42514;SDS011;28144;49.920;18.730;2024-01-30T11:45:21;17.15;;;8.50;;
42514;SDS011;28144;49.920;18.730;2024-01-30T11:47:47;16.50;;;8.97;;
42514;SDS011;28144;49.920;18.730;2024-01-30T11:50:12;16.97;;;8.73;;
42514;SDS011;28144;49.920;18.730;2024-01-30T11:52:39;17.95;;;8.88;;
42514;SDS011;28144;49.920;18.730;2024-01-30T11:55:05;15.90;;;9.00;;
42514;SDS011;28144;49.920;18.730;2024-01-30T11:57:31;14.68;;;8.90;;
42514;SDS011;28144;49.920;18.730;2024-01-30T11:59:57;16.63;;;9.27;;
42514;SDS011;28144;49.920;18.730;2024-01-30T12:02:23;17.40;;;9.07;;
42514;SDS011;28144;49.920;18.730;2024-01-30T12:04:48;18.17;;;8.43;;
42514;SDS011;28144;49.920;18.730;2024-01-30T12:07:15;16.98;;;8.70;;
42514;SDS011;28144;49.920;18.730;2024-01-30T12:09:41;17.98;;;8.82;;
42514;SDS011;28144;49.920;18.730;2024-01-30T12:12:08;16.63;;;8.23;;
42514;SDS011;28144;49.920;18.730;2024-01-30T12:14:39;14.60;;;8.80;;
42514;SDS011;28144;49.920;18.730;2024-01-30T12:17:06;19.65;;;9.60;;
42514;SDS011;28144;49.920;18.730;2024-01-30T12:19:33;23.60;;;10.10;;
42514;SDS011;28144;49.920;18.730;2024-01-30T12:21:59;18.10;;;8.27;;
42514;SDS011;28144;49.920;18.730;2024-01-30T12:24:25;15.30;;;9.47;;
42514;SDS011;28144;49.920;18.730;2024-01-30T12:26:52;17.90;;;9.00;;
42514;SDS011;28144;49.920;18.730;2024-01-30T12:29:22;15.23;;;7.90;;
42514;SDS011;28144;49.920;18.730;2024-01-30T12:31:47;14.27;;;7.07;;
42514;SDS011;28144;49.920;18.730;2024-01-30T12:34:13;19.40;;;11.97;;
42514;SDS011;28144;49.920;18.730;2024-01-30T12:36:41;16.30;;;8.20;;
42514;SDS011;28144;49.920;18.730;2024-01-30T12:39:10;20.83;;;8.70;;
42514;SDS011;28144;49.920;18.730;2024-01-30T12:41:37;15.10;;;7.50;;
42514;SDS011;28144;49.920;18.730;2024-01-30T12:44:03;16.03;;;7.37;;
42514;SDS011;28144;49.920;18.730;2024-01-30T12:46:29;17.40;;;6.97;;
42514;SDS011;28144;49.920;18.730;2024-01-30T12:48:54;14.40;;;7.40;;
42514;SDS011;28144;49.920;18.730;2024-01-30T12:51:20;16.10;;;7.10;;
42514;SDS011;28144;49.920;18.730;2024-01-30T12:53:46;13.43;;;6.53;;
42514;SDS011;28144;49.920;18.730;2024-01-30T12:56:13;14.63;;;7.50;;
42514;SDS011;28144;49.920;18.730;2024-01-30T12:58:40;16.45;;;6.90;;
42514;SDS011;28144;49.920;18.730;2024-01-30T13:01:08;13.57;;;7.03;;
42514;SDS011;28144;49.920;18.730;2024-01-30T13:03:34;16.88;;;7.13;;
42514;SDS011;28144;49.920;18.730;2024-01-30T13:06:00;16.23;;;6.80;;
42514;SDS011;28144;49.920;18.730;2024-01-30T13:08:26;14.83;;;7.13;;
42514;SDS011;28144;49.920;18.730;2024-01-30T13:10:52;14.87;;;6.43;;
42514;SDS011;28144;49.920;18.730;2024-01-30T13:13:18;18.13;;;6.37;;
42514;SDS011;28144;49.920;18.730;2024-01-30T13:15:43;12.93;;;7.47;;
42514;SDS011;28144;49.920;18.730;2024-01-30T13:18:09;16.43;;;7.27;;
42514;SDS011;28144;49.920;18.730;2024-01-30T13:20:35;15.05;;;6.72;;
42514;SDS011;28144;49.920;18.730;2024-01-30T13:23:01;13.77;;;7.43;;
42514;SDS011;28144;49.920;18.730;2024-01-30T13:25:27;15.45;;;7.32;;
42514;SDS011;28144;49.920;18.730;2024-01-30T13:27:53;15.70;;;7.00;;
42514;SDS011;28144;49.920;18.730;2024-01-30T13:30:19;14.82;;;7.20;;
42514;SDS011;28144;49.920;18.730;2024-01-30T13:32:45;15.40;;;7.10;;
42514;SDS011;28144;49.920;18.730;2024-01-30T13:37:38;15.23;;;6.17;;
42514;SDS011;28144;49.920;18.730;2024-01-30T13:40:05;16.37;;;6.93;;
42514;SDS011;28144;49.920;18.730;2024-01-30T13:42:34;19.10;;;7.37;;
42514;SDS011;28144;49.920;18.730;2024-01-30T13:45:00;16.73;;;7.18;;
42514;SDS011;28144;49.920;18.730;2024-01-30T13:47:26;14.48;;;6.90;;
42514;SDS011;28144;49.920;18.730;2024-01-30T13:49:52;19.25;;;7.03;;
42514;SDS011;28144;49.920;18.730;2024-01-30T13:52:18;13.20;;;7.33;;
42514;SDS011;28144;49.920;18.730;2024-01-30T13:54:44;12.00;;;6.90;;
42514;SDS011;28144;49.920;18.730;2024-01-30T13:57:10;16.20;;;7.60;;
42514;SDS011;28144;49.920;18.730;2024-01-30T13:59:37;13.60;;;7.22;;
42514;SDS011;28144;49.920;18.730;2024-01-30T14:02:03;21.47;;;7.57;;
42514;SDS011;28144;49.920;18.730;2024-01-30T14:04:29;14.13;;;7.18;;
42514;SDS011;28144;49.920;18.730;2024-01-30T14:06:54;19.97;;;7.80;;
42514;SDS011;28144;49.920;18.730;2024-01-30T14:09:20;11.83;;;6.73;;
42514;SDS011;28144;49.920;18.730;2024-01-30T14:11:46;15.97;;;6.77;;
42514;SDS011;28144;49.920;18.730;2024-01-30T14:14:15;13.20;;;6.97;;
42514;SDS011;28144;49.920;18.730;2024-01-30T14:16:40;16.43;;;6.33;;
42514;SDS011;28144;49.920;18.730;2024-01-30T14:19:06;14.67;;;7.13;;
42514;SDS011;28144;49.920;18.730;2024-01-30T14:21:32;14.27;;;6.63;;
42514;SDS011;28144;49.920;18.730;2024-01-30T14:23:57;12.00;;;6.97;;
42514;SDS011;28144;49.920;18.730;2024-01-30T14:26:23;17.73;;;7.57;;